Terminal Aerodrome Forecast
Issued by NWS Atlanta, GA

Home | Current Version | Previous Version | Text Only | Print | Product List | Glossary On
Versions: 1 2 3 4 5 6 7 8 9 10 11 12 13 14 15 16 17
628
FTUS42 KFFC 221127
TAFMCN
TAF
KMCN 221127Z 2212/2312 11008KT P6SM VCSH BKN050
     FM221500 09007KT P6SM VCSH OVC035
     FM230200 08003KT P6SM BKN015
     FM230600 06003KT 5SM BR OVC007=

USA.gov is the U.S. government's official web portal to all federal, state and local government web resources and services.